sensor_id;sensor_type;location;lat;lon;timestamp;P1;durP1;ratioP1;P2;durP2;ratioP2
48975;SDS011;34791;52.752;8.346;2023-04-01T00:00:08;31.13;;;14.13;;
48975;SDS011;34791;52.752;8.346;2023-04-01T00:02:34;28.80;;;13.43;;
48975;SDS011;34791;52.752;8.346;2023-04-01T00:05:00;29.10;;;14.43;;
48975;SDS011;34791;52.752;8.346;2023-04-01T00:07:26;29.77;;;14.53;;
48975;SDS011;34791;52.752;8.346;2023-04-01T00:09:52;26.97;;;13.50;;
48975;SDS011;34791;52.752;8.346;2023-04-01T00:12:17;30.33;;;14.87;;
48975;SDS011;34791;52.752;8.346;2023-04-01T00:14:43;29.33;;;14.40;;
48975;SDS011;34791;52.752;8.346;2023-04-01T00:17:09;32.03;;;14.47;;
48975;SDS011;34791;52.752;8.346;2023-04-01T00:19:35;28.80;;;14.53;;
48975;SDS011;34791;52.752;8.346;2023-04-01T00:22:02;28.43;;;14.43;;
48975;SDS011;34791;52.752;8.346;2023-04-01T00:24:28;28.87;;;13.10;;
48975;SDS011;34791;52.752;8.346;2023-04-01T00:26:54;27.27;;;12.87;;
48975;SDS011;34791;52.752;8.346;2023-04-01T00:29:20;27.27;;;13.43;;
48975;SDS011;34791;52.752;8.346;2023-04-01T00:31:46;24.40;;;13.17;;
48975;SDS011;34791;52.752;8.346;2023-04-01T00:34:12;21.27;;;11.20;;
48975;SDS011;34791;52.752;8.346;2023-04-01T00:36:37;25.60;;;13.10;;
48975;SDS011;34791;52.752;8.346;2023-04-01T00:39:03;23.23;;;11.63;;
48975;SDS011;34791;52.752;8.346;2023-04-01T00:41:29;28.07;;;12.67;;
48975;SDS011;34791;52.752;8.346;2023-04-01T00:44:11;25.37;;;13.03;;
48975;SDS011;34791;52.752;8.346;2023-04-01T00:46:41;24.13;;;11.97;;
48975;SDS011;34791;52.752;8.346;2023-04-01T00:49:07;24.40;;;11.53;;
48975;SDS011;34791;52.752;8.346;2023-04-01T00:51:33;26.17;;;12.80;;
48975;SDS011;34791;52.752;8.346;2023-04-01T00:54:01;23.33;;;12.03;;
48975;SDS011;34791;52.752;8.346;2023-04-01T00:56:35;21.50;;;10.87;;
48975;SDS011;34791;52.752;8.346;2023-04-01T00:59:10;25.80;;;12.60;;
48975;SDS011;34791;52.752;8.346;2023-04-01T01:04:25;25.47;;;12.53;;
48975;SDS011;34791;52.752;8.346;2023-04-01T01:06:56;24.50;;;12.50;;
48975;SDS011;34791;52.752;8.346;2023-04-01T01:15:53;24.13;;;11.80;;
48975;SDS011;34791;52.752;8.346;2023-04-01T01:27:47;23.77;;;13.37;;
48975;SDS011;34791;52.752;8.346;2023-04-01T01:30:36;27.83;;;12.87;;
48975;SDS011;34791;52.752;8.346;2023-04-01T01:33:24;24.63;;;13.43;;
48975;SDS011;34791;52.752;8.346;2023-04-01T01:36:12;25.60;;;13.63;;
48975;SDS011;34791;52.752;8.346;2023-04-01T01:38:40;23.73;;;11.43;;
48975;SDS011;34791;52.752;8.346;2023-04-01T01:41:07;27.30;;;13.50;;
48975;SDS011;34791;52.752;8.346;2023-04-01T01:43:41;26.47;;;14.00;;
48975;SDS011;34791;52.752;8.346;2023-04-01T01:46:12;24.97;;;13.83;;
48975;SDS011;34791;52.752;8.346;2023-04-01T01:48:41;26.67;;;13.53;;
48975;SDS011;34791;52.752;8.346;2023-04-01T01:51:08;28.67;;;13.63;;
48975;SDS011;34791;52.752;8.346;2023-04-01T01:53:34;27.83;;;12.87;;
48975;SDS011;34791;52.752;8.346;2023-04-01T01:56:00;25.33;;;12.67;;
48975;SDS011;34791;52.752;8.346;2023-04-01T02:01:19;21.63;;;12.18;;
48975;SDS011;34791;52.752;8.346;2023-04-01T02:03:48;23.27;;;11.60;;
48975;SDS011;34791;52.752;8.346;2023-04-01T02:06:17;27.47;;;13.33;;
48975;SDS011;34791;52.752;8.346;2023-04-01T02:09:07;27.93;;;12.93;;
48975;SDS011;34791;52.752;8.346;2023-04-01T02:14:39;22.00;;;12.17;;
48975;SDS011;34791;52.752;8.346;2023-04-01T02:17:23;24.63;;;12.70;;
48975;SDS011;34791;52.752;8.346;2023-04-01T02:19:52;22.90;;;11.60;;
48975;SDS011;34791;52.752;8.346;2023-04-01T02:22:22;26.20;;;12.37;;
48975;SDS011;34791;52.752;8.346;2023-04-01T02:24:52;26.40;;;12.97;;
48975;SDS011;34791;52.752;8.346;2023-04-01T02:27:22;21.80;;;12.35;;
48975;SDS011;34791;52.752;8.346;2023-04-01T02:29:48;23.47;;;11.53;;
48975;SDS011;34791;52.752;8.346;2023-04-01T02:32:15;22.87;;;12.27;;
48975;SDS011;34791;52.752;8.346;2023-04-01T02:34:42;22.73;;;11.93;;
48975;SDS011;34791;52.752;8.346;2023-04-01T02:37:08;23.97;;;11.27;;
48975;SDS011;34791;52.752;8.346;2023-04-01T02:39:35;21.73;;;10.47;;
48975;SDS011;34791;52.752;8.346;2023-04-01T02:42:01;24.20;;;11.40;;
48975;SDS011;34791;52.752;8.346;2023-04-01T02:44:26;18.23;;;8.90;;
48975;SDS011;34791;52.752;8.346;2023-04-01T02:46:52;21.33;;;11.20;;
48975;SDS011;34791;52.752;8.346;2023-04-01T02:49:17;20.53;;;10.07;;
48975;SDS011;34791;52.752;8.346;2023-04-01T02:51:43;22.60;;;10.90;;
48975;SDS011;34791;52.752;8.346;2023-04-01T02:54:08;20.37;;;10.90;;
48975;SDS011;34791;52.752;8.346;2023-04-01T02:56:34;17.37;;;8.53;;
48975;SDS011;34791;52.752;8.346;2023-04-01T02:58:59;20.17;;;9.77;;
48975;SDS011;34791;52.752;8.346;2023-04-01T03:01:25;17.77;;;9.93;;
48975;SDS011;34791;52.752;8.346;2023-04-01T03:03:50;20.47;;;10.73;;
48975;SDS011;34791;52.752;8.346;2023-04-01T03:06:16;17.40;;;8.33;;
48975;SDS011;34791;52.752;8.346;2023-04-01T03:08:42;18.37;;;9.50;;
48975;SDS011;34791;52.752;8.346;2023-04-01T03:11:08;20.27;;;9.50;;
48975;SDS011;34791;52.752;8.346;2023-04-01T03:13:34;18.33;;;9.00;;
48975;SDS011;34791;52.752;8.346;2023-04-01T03:16:00;20.27;;;9.27;;
48975;SDS011;34791;52.752;8.346;2023-04-01T03:18:25;18.73;;;9.47;;
48975;SDS011;34791;52.752;8.346;2023-04-01T03:20:51;20.17;;;9.03;;
48975;SDS011;34791;52.752;8.346;2023-04-01T03:23:17;15.23;;;8.00;;
48975;SDS011;34791;52.752;8.346;2023-04-01T03:25:44;16.57;;;8.23;;
48975;SDS011;34791;52.752;8.346;2023-04-01T03:28:10;15.77;;;8.40;;
48975;SDS011;34791;52.752;8.346;2023-04-01T03:30:35;15.90;;;7.90;;
48975;SDS011;34791;52.752;8.346;2023-04-01T03:33:01;18.57;;;8.87;;
48975;SDS011;34791;52.752;8.346;2023-04-01T03:35:27;18.67;;;8.90;;
48975;SDS011;34791;52.752;8.346;2023-04-01T03:37:53;15.87;;;7.13;;
48975;SDS011;34791;52.752;8.346;2023-04-01T03:40:19;16.97;;;8.57;;
48975;SDS011;34791;52.752;8.346;2023-04-01T03:42:45;14.67;;;7.20;;
48975;SDS011;34791;52.752;8.346;2023-04-01T03:45:11;15.10;;;7.63;;
48975;SDS011;34791;52.752;8.346;2023-04-01T03:47:37;16.07;;;8.10;;
48975;SDS011;34791;52.752;8.346;2023-04-01T03:50:03;16.17;;;8.53;;
48975;SDS011;34791;52.752;8.346;2023-04-01T03:52:30;15.40;;;8.77;;
48975;SDS011;34791;52.752;8.346;2023-04-01T03:54:56;16.93;;;8.60;;
48975;SDS011;34791;52.752;8.346;2023-04-01T03:57:21;19.83;;;8.53;;
48975;SDS011;34791;52.752;8.346;2023-04-01T03:59:47;15.67;;;7.90;;
48975;SDS011;34791;52.752;8.346;2023-04-01T04:02:12;15.77;;;7.50;;
48975;SDS011;34791;52.752;8.346;2023-04-01T04:04:38;15.10;;;6.77;;
48975;SDS011;34791;52.752;8.346;2023-04-01T04:07:03;13.10;;;6.57;;
48975;SDS011;34791;52.752;8.346;2023-04-01T04:09:32;14.07;;;6.33;;
48975;SDS011;34791;52.752;8.346;2023-04-01T04:11:58;14.30;;;6.77;;
48975;SDS011;34791;52.752;8.346;2023-04-01T04:14:24;11.63;;;6.47;;
48975;SDS011;34791;52.752;8.346;2023-04-01T04:16:49;14.03;;;6.27;;
48975;SDS011;34791;52.752;8.346;2023-04-01T04:19:15;12.57;;;6.40;;
48975;SDS011;34791;52.752;8.346;2023-04-01T04:21:40;12.83;;;6.47;;
48975;SDS011;34791;52.752;8.346;2023-04-01T04:24:06;10.27;;;4.97;;
48975;SDS011;34791;52.752;8.346;2023-04-01T04:26:32;11.50;;;5.83;;
48975;SDS011;34791;52.752;8.346;2023-04-01T04:28:58;12.77;;;5.17;;
48975;SDS011;34791;52.752;8.346;2023-04-01T04:31:24;10.57;;;5.23;;
48975;SDS011;34791;52.752;8.346;2023-04-01T04:33:50;10.80;;;5.20;;
48975;SDS011;34791;52.752;8.346;2023-04-01T04:36:17;13.33;;;5.80;;
48975;SDS011;34791;52.752;8.346;2023-04-01T04:38:43;9.20;;;4.93;;
48975;SDS011;34791;52.752;8.346;2023-04-01T04:41:12;9.17;;;4.80;;
48975;SDS011;34791;52.752;8.346;2023-04-01T04:43:39;10.23;;;5.03;;
48975;SDS011;34791;52.752;8.346;2023-04-01T04:46:09;9.20;;;4.80;;
48975;SDS011;34791;52.752;8.346;2023-04-01T04:48:35;9.40;;;4.50;;
48975;SDS011;34791;52.752;8.346;2023-04-01T04:51:01;9.83;;;4.63;;
48975;SDS011;34791;52.752;8.346;2023-04-01T04:53:28;9.93;;;4.63;;
48975;SDS011;34791;52.752;8.346;2023-04-01T04:55:53;8.93;;;5.33;;
48975;SDS011;34791;52.752;8.346;2023-04-01T04:58:19;8.80;;;4.23;;
48975;SDS011;34791;52.752;8.346;2023-04-01T05:00:45;8.83;;;4.77;;
48975;SDS011;34791;52.752;8.346;2023-04-01T05:03:12;11.13;;;5.40;;
48975;SDS011;34791;52.752;8.346;2023-04-01T05:05:38;11.20;;;5.10;;
48975;SDS011;34791;52.752;8.346;2023-04-01T05:08:03;8.87;;;5.00;;
48975;SDS011;34791;52.752;8.346;2023-04-01T05:10:29;11.20;;;5.43;;
48975;SDS011;34791;52.752;8.346;2023-04-01T05:12:55;12.10;;;6.40;;
48975;SDS011;34791;52.752;8.346;2023-04-01T05:15:21;12.20;;;6.30;;
48975;SDS011;34791;52.752;8.346;2023-04-01T05:17:46;10.93;;;5.67;;
48975;SDS011;34791;52.752;8.346;2023-04-01T05:20:12;8.30;;;3.97;;
48975;SDS011;34791;52.752;8.346;2023-04-01T05:22:38;10.00;;;5.40;;
48975;SDS011;34791;52.752;8.346;2023-04-01T05:25:04;10.80;;;5.33;;
48975;SDS011;34791;52.752;8.346;2023-04-01T05:27:31;10.70;;;5.30;;
48975;SDS011;34791;52.752;8.346;2023-04-01T05:29:56;11.07;;;6.00;;
48975;SDS011;34791;52.752;8.346;2023-04-01T05:32:22;8.00;;;4.47;;
48975;SDS011;34791;52.752;8.346;2023-04-01T05:34:50;9.43;;;5.47;;
48975;SDS011;34791;52.752;8.346;2023-04-01T05:37:16;10.97;;;4.83;;
48975;SDS011;34791;52.752;8.346;2023-04-01T05:39:42;10.80;;;5.80;;
48975;SDS011;34791;52.752;8.346;2023-04-01T05:42:08;14.27;;;6.37;;
48975;SDS011;34791;52.752;8.346;2023-04-01T05:44:34;8.00;;;5.10;;
48975;SDS011;34791;52.752;8.346;2023-04-01T05:47:00;13.40;;;5.90;;
48975;SDS011;34791;52.752;8.346;2023-04-01T05:49:26;9.90;;;5.73;;
48975;SDS011;34791;52.752;8.346;2023-04-01T05:51:51;11.77;;;6.23;;
48975;SDS011;34791;52.752;8.346;2023-04-01T05:54:17;9.50;;;5.90;;
48975;SDS011;34791;52.752;8.346;2023-04-01T05:56:43;8.83;;;4.60;;
48975;SDS011;34791;52.752;8.346;2023-04-01T05:59:09;9.37;;;5.00;;
48975;SDS011;34791;52.752;8.346;2023-04-01T06:01:36;9.23;;;5.07;;
48975;SDS011;34791;52.752;8.346;2023-04-01T06:04:01;7.80;;;4.57;;
48975;SDS011;34791;52.752;8.346;2023-04-01T06:06:27;7.30;;;4.70;;
48975;SDS011;34791;52.752;8.346;2023-04-01T06:08:56;8.40;;;4.90;;
48975;SDS011;34791;52.752;8.346;2023-04-01T06:11:28;9.70;;;4.30;;
48975;SDS011;34791;52.752;8.346;2023-04-01T06:14:14;6.80;;;3.80;;
48975;SDS011;34791;52.752;8.346;2023-04-01T06:17:00;6.83;;;3.57;;
48975;SDS011;34791;52.752;8.346;2023-04-01T06:23:29;7.07;;;3.97;;
48975;SDS011;34791;52.752;8.346;2023-04-01T06:26:18;9.43;;;4.40;;
48975;SDS011;34791;52.752;8.346;2023-04-01T06:33:00;7.50;;;4.43;;
48975;SDS011;34791;52.752;8.346;2023-04-01T06:35:17;6.03;;;3.60;;
48975;SDS011;34791;52.752;8.346;2023-04-01T06:38:02;5.30;;;2.70;;
48975;SDS011;34791;52.752;8.346;2023-04-01T06:44:53;4.43;;;2.60;;
48975;SDS011;34791;52.752;8.346;2023-04-01T06:47:18;5.57;;;3.60;;
48975;SDS011;34791;52.752;8.346;2023-04-01T06:50:29;6.63;;;3.30;;
48975;SDS011;34791;52.752;8.346;2023-04-01T06:56:38;5.13;;;3.30;;
48975;SDS011;34791;52.752;8.346;2023-04-01T06:59:20;5.57;;;3.60;;
48975;SDS011;34791;52.752;8.346;2023-04-01T07:01:57;4.60;;;2.77;;
48975;SDS011;34791;52.752;8.346;2023-04-01T07:04:29;5.43;;;3.20;;
48975;SDS011;34791;52.752;8.346;2023-04-01T07:07:01;10.43;;;3.50;;
48975;SDS011;34791;52.752;8.346;2023-04-01T07:09:34;5.80;;;3.63;;
48975;SDS011;34791;52.752;8.346;2023-04-01T07:15:33;5.20;;;3.07;;
48975;SDS011;34791;52.752;8.346;2023-04-01T07:18:06;3.70;;;2.17;;
48975;SDS011;34791;52.752;8.346;2023-04-01T07:20:39;4.00;;;1.67;;
48975;SDS011;34791;52.752;8.346;2023-04-01T07:26:06;6.00;;;2.90;;
48975;SDS011;34791;52.752;8.346;2023-04-01T07:29:00;4.17;;;2.50;;
48975;SDS011;34791;52.752;8.346;2023-04-01T07:31:40;4.43;;;2.27;;
48975;SDS011;34791;52.752;8.346;2023-04-01T07:34:25;3.85;;;2.08;;
48975;SDS011;34791;52.752;8.346;2023-04-01T07:37:15;2.93;;;1.70;;
48975;SDS011;34791;52.752;8.346;2023-04-01T07:40:03;3.57;;;2.27;;
48975;SDS011;34791;52.752;8.346;2023-04-01T07:46:16;4.97;;;2.87;;
48975;SDS011;34791;52.752;8.346;2023-04-01T07:49:05;3.13;;;1.75;;
48975;SDS011;34791;52.752;8.346;2023-04-01T07:55:14;4.20;;;1.60;;
48975;SDS011;34791;52.752;8.346;2023-04-01T07:58:51;1.77;;;0.90;;
48975;SDS011;34791;52.752;8.346;2023-04-01T08:01:16;2.20;;;1.20;;
48975;SDS011;34791;52.752;8.346;2023-04-01T08:04:17;2.72;;;1.50;;
48975;SDS011;34791;52.752;8.346;2023-04-01T08:07:10;2.83;;;1.63;;
48975;SDS011;34791;52.752;8.346;2023-04-01T08:22:27;2.95;;;1.63;;
48975;SDS011;34791;52.752;8.346;2023-04-01T08:24:56;3.83;;;1.73;;
48975;SDS011;34791;52.752;8.346;2023-04-01T08:30:17;1.80;;;1.03;;
48975;SDS011;34791;52.752;8.346;2023-04-01T08:33:00;2.77;;;1.60;;
48975;SDS011;34791;52.752;8.346;2023-04-01T08:38:44;3.40;;;1.70;;
48975;SDS011;34791;52.752;8.346;2023-04-01T08:47:42;4.67;;;2.17;;
48975;SDS011;34791;52.752;8.346;2023-04-01T08:52:29;3.53;;;2.20;;
48975;SDS011;34791;52.752;8.346;2023-04-01T08:54:07;5.13;;;2.70;;
48975;SDS011;34791;52.752;8.346;2023-04-01T08:56:47;3.53;;;1.83;;
48975;SDS011;34791;52.752;8.346;2023-04-01T08:59:39;4.93;;;2.47;;
48975;SDS011;34791;52.752;8.346;2023-04-01T09:05:43;4.00;;;2.70;;
48975;SDS011;34791;52.752;8.346;2023-04-01T09:15:12;3.13;;;1.67;;
48975;SDS011;34791;52.752;8.346;2023-04-01T09:21:09;3.83;;;2.23;;
48975;SDS011;34791;52.752;8.346;2023-04-01T09:24:20;3.80;;;2.00;;
48975;SDS011;34791;52.752;8.346;2023-04-01T09:27:28;3.43;;;1.93;;
48975;SDS011;34791;52.752;8.346;2023-04-01T09:30:03;3.20;;;1.77;;
48975;SDS011;34791;52.752;8.346;2023-04-01T09:34:20;3.27;;;1.87;;
48975;SDS011;34791;52.752;8.346;2023-04-01T09:39:13;3.90;;;2.00;;
48975;SDS011;34791;52.752;8.346;2023-04-01T09:42:24;2.73;;;1.60;;
48975;SDS011;34791;52.752;8.346;2023-04-01T09:45:07;2.67;;;1.50;;
48975;SDS011;34791;52.752;8.346;2023-04-01T09:47:45;2.30;;;1.30;;
48975;SDS011;34791;52.752;8.346;2023-04-01T09:50:48;3.20;;;1.83;;
48975;SDS011;34791;52.752;8.346;2023-04-01T10:02:51;1.87;;;1.10;;
48975;SDS011;34791;52.752;8.346;2023-04-01T10:08:58;2.53;;;1.43;;
48975;SDS011;34791;52.752;8.346;2023-04-01T10:12:08;2.23;;;1.30;;
48975;SDS011;34791;52.752;8.346;2023-04-01T10:20:59;2.90;;;1.10;;
48975;SDS011;34791;52.752;8.346;2023-04-01T10:24:25;1.80;;;0.90;;
48975;SDS011;34791;52.752;8.346;2023-04-01T10:34:26;1.17;;;0.73;;
48975;SDS011;34791;52.752;8.346;2023-04-01T10:38:18;0.87;;;0.60;;
48975;SDS011;34791;52.752;8.346;2023-04-01T10:40:37;1.10;;;0.70;;
48975;SDS011;34791;52.752;8.346;2023-04-01T10:50:13;1.17;;;0.70;;
48975;SDS011;34791;52.752;8.346;2023-04-01T10:53:12;1.87;;;1.00;;
48975;SDS011;34791;52.752;8.346;2023-04-01T10:56:09;1.90;;;1.00;;
48975;SDS011;34791;52.752;8.346;2023-04-01T11:03:07;0.50;;;0.30;;
48975;SDS011;34791;52.752;8.346;2023-04-01T11:18:57;1.37;;;0.60;;
48975;SDS011;34791;52.752;8.346;2023-04-01T11:34:09;1.20;;;0.70;;
48975;SDS011;34791;52.752;8.346;2023-04-01T11:40:11;1.17;;;0.77;;
48975;SDS011;34791;52.752;8.346;2023-04-01T11:45:58;0.97;;;0.60;;
48975;SDS011;34791;52.752;8.346;2023-04-01T11:48:48;0.60;;;0.60;;
48975;SDS011;34791;52.752;8.346;2023-04-01T11:51:51;4.15;;;2.38;;
48975;SDS011;34791;52.752;8.346;2023-04-01T11:54:56;1.83;;;1.10;;
48975;SDS011;34791;52.752;8.346;2023-04-01T12:00:49;2.43;;;1.50;;
48975;SDS011;34791;52.752;8.346;2023-04-01T12:03:46;3.17;;;1.87;;
48975;SDS011;34791;52.752;8.346;2023-04-01T12:07:06;4.30;;;1.67;;
48975;SDS011;34791;52.752;8.346;2023-04-01T12:11:04;1.90;;;1.07;;
48975;SDS011;34791;52.752;8.346;2023-04-01T12:13:25;2.90;;;1.50;;
48975;SDS011;34791;52.752;8.346;2023-04-01T12:22:23;2.27;;;1.40;;
48975;SDS011;34791;52.752;8.346;2023-04-01T12:25:22;2.53;;;1.50;;
48975;SDS011;34791;52.752;8.346;2023-04-01T12:30:52;1.57;;;0.70;;
48975;SDS011;34791;52.752;8.346;2023-04-01T12:39:20;1.33;;;0.70;;
48975;SDS011;34791;52.752;8.346;2023-04-01T12:42:23;1.10;;;0.70;;
48975;SDS011;34791;52.752;8.346;2023-04-01T12:45:04;1.47;;;1.00;;
48975;SDS011;34791;52.752;8.346;2023-04-01T12:47:54;1.10;;;0.70;;
48975;SDS011;34791;52.752;8.346;2023-04-01T12:56:23;1.80;;;0.90;;
48975;SDS011;34791;52.752;8.346;2023-04-01T12:59:52;2.20;;;1.00;;
48975;SDS011;34791;52.752;8.346;2023-04-01T13:02:30;1.53;;;0.90;;
48975;SDS011;34791;52.752;8.346;2023-04-01T13:05:45;2.17;;;1.10;;
48975;SDS011;34791;52.752;8.346;2023-04-01T13:08:58;2.00;;;1.17;;
48975;SDS011;34791;52.752;8.346;2023-04-01T13:24:18;2.25;;;1.05;;
48975;SDS011;34791;52.752;8.346;2023-04-01T13:27:09;1.80;;;1.10;;
48975;SDS011;34791;52.752;8.346;2023-04-01T13:29:45;2.70;;;1.40;;
48975;SDS011;34791;52.752;8.346;2023-04-01T13:32:35;1.63;;;0.97;;
48975;SDS011;34791;52.752;8.346;2023-04-01T13:35:53;1.47;;;0.70;;
48975;SDS011;34791;52.752;8.346;2023-04-01T13:42:37;2.10;;;1.10;;
48975;SDS011;34791;52.752;8.346;2023-04-01T13:57:23;1.00;;;0.70;;
48975;SDS011;34791;52.752;8.346;2023-04-01T14:06:11;2.27;;;1.00;;
48975;SDS011;34791;52.752;8.346;2023-04-01T14:08:47;1.93;;;1.00;;
48975;SDS011;34791;52.752;8.346;2023-04-01T14:13:18;1.60;;;0.80;;
48975;SDS011;34791;52.752;8.346;2023-04-01T14:21:13;1.50;;;0.90;;
48975;SDS011;34791;52.752;8.346;2023-04-01T14:23:56;1.57;;;1.00;;
48975;SDS011;34791;52.752;8.346;2023-04-01T14:32:54;1.90;;;0.90;;
48975;SDS011;34791;52.752;8.346;2023-04-01T14:35:33;1.63;;;0.87;;
48975;SDS011;34791;52.752;8.346;2023-04-01T14:38:15;1.63;;;0.90;;
48975;SDS011;34791;52.752;8.346;2023-04-01T14:41:19;2.43;;;0.83;;
48975;SDS011;34791;52.752;8.346;2023-04-01T14:43:54;1.57;;;0.80;;
48975;SDS011;34791;52.752;8.346;2023-04-01T14:49:35;1.47;;;0.90;;
48975;SDS011;34791;52.752;8.346;2023-04-01T14:52:16;1.77;;;1.00;;
48975;SDS011;34791;52.752;8.346;2023-04-01T14:54:50;2.03;;;1.00;;
48975;SDS011;34791;52.752;8.346;2023-04-01T14:57:30;1.10;;;0.70;;
48975;SDS011;34791;52.752;8.346;2023-04-01T15:00:15;1.93;;;1.00;;
48975;SDS011;34791;52.752;8.346;2023-04-01T15:05:50;1.40;;;0.70;;
48975;SDS011;34791;52.752;8.346;2023-04-01T15:08:30;2.00;;;0.90;;
48975;SDS011;34791;52.752;8.346;2023-04-01T15:11:10;2.00;;;1.03;;
48975;SDS011;34791;52.752;8.346;2023-04-01T15:13:58;1.57;;;0.60;;
48975;SDS011;34791;52.752;8.346;2023-04-01T15:16:50;3.57;;;1.00;;
48975;SDS011;34791;52.752;8.346;2023-04-01T15:22:55;1.07;;;0.70;;
48975;SDS011;34791;52.752;8.346;2023-04-01T15:25:51;1.43;;;0.77;;
48975;SDS011;34791;52.752;8.346;2023-04-01T15:37:00;1.03;;;0.70;;
48975;SDS011;34791;52.752;8.346;2023-04-01T15:39:42;5.10;;;1.10;;
48975;SDS011;34791;52.752;8.346;2023-04-01T15:45:58;1.23;;;0.70;;
48975;SDS011;34791;52.752;8.346;2023-04-01T15:48:57;1.50;;;0.90;;
48975;SDS011;34791;52.752;8.346;2023-04-01T16:03:40;1.83;;;0.87;;
48975;SDS011;34791;52.752;8.346;2023-04-01T16:09:43;1.50;;;0.80;;
48975;SDS011;34791;52.752;8.346;2023-04-01T16:18:39;1.83;;;0.90;;
48975;SDS011;34791;52.752;8.346;2023-04-01T16:21:23;1.67;;;0.80;;
48975;SDS011;34791;52.752;8.346;2023-04-01T16:27:24;1.27;;;0.77;;
48975;SDS011;34791;52.752;8.346;2023-04-01T16:33:15;2.30;;;0.80;;
48975;SDS011;34791;52.752;8.346;2023-04-01T16:36:05;1.60;;;0.80;;
48975;SDS011;34791;52.752;8.346;2023-04-01T16:45:02;2.33;;;1.23;;
48975;SDS011;34791;52.752;8.346;2023-04-01T16:47:51;2.60;;;1.50;;
48975;SDS011;34791;52.752;8.346;2023-04-01T16:50:21;3.03;;;1.60;;
48975;SDS011;34791;52.752;8.346;2023-04-01T16:52:59;3.27;;;1.53;;
48975;SDS011;34791;52.752;8.346;2023-04-01T16:55:44;3.23;;;1.43;;
48975;SDS011;34791;52.752;8.346;2023-04-01T16:58:25;2.80;;;1.23;;
48975;SDS011;34791;52.752;8.346;2023-04-01T17:00:58;2.03;;;1.00;;
48975;SDS011;34791;52.752;8.346;2023-04-01T17:03:45;2.80;;;1.50;;
48975;SDS011;34791;52.752;8.346;2023-04-01T17:06:25;3.60;;;1.65;;
48975;SDS011;34791;52.752;8.346;2023-04-01T17:09:12;3.60;;;1.50;;
48975;SDS011;34791;52.752;8.346;2023-04-01T17:12:08;1.87;;;0.90;;
48975;SDS011;34791;52.752;8.346;2023-04-01T17:20:58;2.50;;;1.20;;
48975;SDS011;34791;52.752;8.346;2023-04-01T17:23:30;2.00;;;1.03;;
48975;SDS011;34791;52.752;8.346;2023-04-01T17:29:18;3.10;;;1.30;;
48975;SDS011;34791;52.752;8.346;2023-04-01T17:33:30;2.00;;;0.90;;
48975;SDS011;34791;52.752;8.346;2023-04-01T17:38:42;2.17;;;0.80;;
48975;SDS011;34791;52.752;8.346;2023-04-01T17:41:54;2.92;;;1.42;;
48975;SDS011;34791;52.752;8.346;2023-04-01T17:44:38;3.28;;;1.40;;
48975;SDS011;34791;52.752;8.346;2023-04-01T17:47:41;1.67;;;0.93;;
48975;SDS011;34791;52.752;8.346;2023-04-01T17:50:20;3.07;;;1.53;;
48975;SDS011;34791;52.752;8.346;2023-04-01T17:56:27;2.33;;;1.00;;
48975;SDS011;34791;52.752;8.346;2023-04-01T17:59:10;4.20;;;1.97;;
48975;SDS011;34791;52.752;8.346;2023-04-01T18:02:02;3.90;;;1.57;;
48975;SDS011;34791;52.752;8.346;2023-04-01T18:04:55;3.90;;;1.83;;
48975;SDS011;34791;52.752;8.346;2023-04-01T18:10:51;5.82;;;2.45;;
48975;SDS011;34791;52.752;8.346;2023-04-01T18:13:25;3.47;;;1.63;;
48975;SDS011;34791;52.752;8.346;2023-04-01T18:28:41;3.95;;;1.67;;
48975;SDS011;34791;52.752;8.346;2023-04-01T18:33:57;4.17;;;2.27;;
48975;SDS011;34791;52.752;8.346;2023-04-01T18:39:23;2.83;;;1.53;;
48975;SDS011;34791;52.752;8.346;2023-04-01T18:45:23;4.77;;;2.07;;
48975;SDS011;34791;52.752;8.346;2023-04-01T18:54:40;5.80;;;2.40;;
48975;SDS011;34791;52.752;8.346;2023-04-01T18:57:08;5.03;;;2.27;;
48975;SDS011;34791;52.752;8.346;2023-04-01T18:59:45;4.75;;;1.85;;
48975;SDS011;34791;52.752;8.346;2023-04-01T19:05:08;4.57;;;2.13;;
48975;SDS011;34791;52.752;8.346;2023-04-01T19:07:41;6.47;;;3.17;;
48975;SDS011;34791;52.752;8.346;2023-04-01T19:10:55;6.13;;;2.13;;
48975;SDS011;34791;52.752;8.346;2023-04-01T19:13:46;4.80;;;2.37;;
48975;SDS011;34791;52.752;8.346;2023-04-01T19:16:41;4.23;;;2.23;;
48975;SDS011;34791;52.752;8.346;2023-04-01T19:22:42;5.00;;;2.20;;
48975;SDS011;34791;52.752;8.346;2023-04-01T19:25:52;8.60;;;3.60;;
48975;SDS011;34791;52.752;8.346;2023-04-01T19:31:37;7.23;;;4.30;;
48975;SDS011;34791;52.752;8.346;2023-04-01T19:37:38;5.53;;;2.40;;
48975;SDS011;34791;52.752;8.346;2023-04-01T19:47:02;4.95;;;2.13;;
48975;SDS011;34791;52.752;8.346;2023-04-01T19:49:10;7.10;;;3.07;;
48975;SDS011;34791;52.752;8.346;2023-04-01T19:51:50;6.03;;;2.97;;
48975;SDS011;34791;52.752;8.346;2023-04-01T19:54:26;5.97;;;2.07;;
48975;SDS011;34791;52.752;8.346;2023-04-01T19:58:08;5.80;;;2.57;;
48975;SDS011;34791;52.752;8.346;2023-04-01T20:00:28;9.70;;;4.30;;
48975;SDS011;34791;52.752;8.346;2023-04-01T20:03:44;7.93;;;4.25;;
48975;SDS011;34791;52.752;8.346;2023-04-01T20:06:38;7.83;;;4.03;;
48975;SDS011;34791;52.752;8.346;2023-04-01T20:15:39;6.73;;;2.97;;
48975;SDS011;34791;52.752;8.346;2023-04-01T20:18:16;3.87;;;1.70;;
48975;SDS011;34791;52.752;8.346;2023-04-01T20:20:57;6.40;;;2.47;;
48975;SDS011;34791;52.752;8.346;2023-04-01T20:23:45;6.33;;;3.60;;
48975;SDS011;34791;52.752;8.346;2023-04-01T20:26:34;10.63;;;4.60;;
48975;SDS011;34791;52.752;8.346;2023-04-01T20:29:30;7.10;;;3.20;;
48975;SDS011;34791;52.752;8.346;2023-04-01T20:32:06;5.60;;;2.93;;
48975;SDS011;34791;52.752;8.346;2023-04-01T20:35:32;5.93;;;3.27;;
48975;SDS011;34791;52.752;8.346;2023-04-01T20:39:03;7.57;;;3.60;;
48975;SDS011;34791;52.752;8.346;2023-04-01T20:42:18;8.63;;;4.13;;
48975;SDS011;34791;52.752;8.346;2023-04-01T20:44:36;9.30;;;4.47;;
48975;SDS011;34791;52.752;8.346;2023-04-01T20:50:44;6.60;;;2.87;;
48975;SDS011;34791;52.752;8.346;2023-04-01T20:56:40;5.93;;;2.85;;
48975;SDS011;34791;52.752;8.346;2023-04-01T20:59:24;10.70;;;3.93;;
48975;SDS011;34791;52.752;8.346;2023-04-01T21:02:05;7.47;;;3.15;;
48975;SDS011;34791;52.752;8.346;2023-04-01T21:08:32;8.20;;;3.90;;
48975;SDS011;34791;52.752;8.346;2023-04-01T21:11:09;5.70;;;3.03;;
48975;SDS011;34791;52.752;8.346;2023-04-01T21:20:54;7.20;;;3.10;;
48975;SDS011;34791;52.752;8.346;2023-04-01T21:23:42;7.73;;;3.87;;
48975;SDS011;34791;52.752;8.346;2023-04-01T21:32:41;16.40;;;6.45;;
48975;SDS011;34791;52.752;8.346;2023-04-01T21:40:12;5.23;;;2.90;;
48975;SDS011;34791;52.752;8.346;2023-04-01T21:45:28;12.13;;;6.00;;
48975;SDS011;34791;52.752;8.346;2023-04-01T21:51:50;11.23;;;5.17;;
48975;SDS011;34791;52.752;8.346;2023-04-01T22:02:59;12.97;;;7.10;;
48975;SDS011;34791;52.752;8.346;2023-04-01T22:04:46;17.10;;;7.03;;
48975;SDS011;34791;52.752;8.346;2023-04-01T22:07:38;9.17;;;5.03;;
48975;SDS011;34791;52.752;8.346;2023-04-01T22:13:35;13.60;;;6.43;;
48975;SDS011;34791;52.752;8.346;2023-04-01T22:16:15;12.80;;;6.03;;
48975;SDS011;34791;52.752;8.346;2023-04-01T22:21:59;11.43;;;5.30;;
48975;SDS011;34791;52.752;8.346;2023-04-01T22:24:56;10.67;;;5.43;;
48975;SDS011;34791;52.752;8.346;2023-04-01T22:30:24;10.40;;;5.87;;
48975;SDS011;34791;52.752;8.346;2023-04-01T22:33:05;7.83;;;4.13;;
48975;SDS011;34791;52.752;8.346;2023-04-01T22:35:46;11.87;;;6.37;;
48975;SDS011;34791;52.752;8.346;2023-04-01T22:39:21;12.47;;;6.03;;
48975;SDS011;34791;52.752;8.346;2023-04-01T22:42:00;10.53;;;3.43;;
48975;SDS011;34791;52.752;8.346;2023-04-01T22:44:52;12.77;;;5.27;;
48975;SDS011;34791;52.752;8.346;2023-04-01T22:48:54;13.90;;;6.40;;